sensor_id;sensor_type;location;lat;lon;timestamp;temperature;humidity
44537;DHT22;30245;51.966;6.292;2023-04-25T00:00:06;13.80;56.60
44537;DHT22;30245;51.966;6.292;2023-04-25T00:02:33;13.80;56.60
44537;DHT22;30245;51.966;6.292;2023-04-25T00:05:00;13.80;56.60
44537;DHT22;30245;51.966;6.292;2023-04-25T00:07:27;13.80;56.60
44537;DHT22;30245;51.966;6.292;2023-04-25T00:09:52;13.80;56.50
44537;DHT22;30245;51.966;6.292;2023-04-25T00:12:18;13.90;56.50
44537;DHT22;30245;51.966;6.292;2023-04-25T00:14:43;13.90;56.50
44537;DHT22;30245;51.966;6.292;2023-04-25T00:17:10;13.80;56.50
44537;DHT22;30245;51.966;6.292;2023-04-25T00:19:36;13.90;56.50
44537;DHT22;30245;51.966;6.292;2023-04-25T00:22:03;13.90;56.50
44537;DHT22;30245;51.966;6.292;2023-04-25T00:24:29;14.00;56.50
44537;DHT22;30245;51.966;6.292;2023-04-25T00:26:55;13.90;56.40
44537;DHT22;30245;51.966;6.292;2023-04-25T00:29:20;14.00;56.40
44537;DHT22;30245;51.966;6.292;2023-04-25T00:31:46;13.90;56.40
44537;DHT22;30245;51.966;6.292;2023-04-25T00:34:11;13.90;56.40
44537;DHT22;30245;51.966;6.292;2023-04-25T00:36:37;13.80;56.40
44537;DHT22;30245;51.966;6.292;2023-04-25T00:39:03;13.80;56.50
44537;DHT22;30245;51.966;6.292;2023-04-25T00:41:30;13.80;56.60
44537;DHT22;30245;51.966;6.292;2023-04-25T00:43:56;13.80;56.60
44537;DHT22;30245;51.966;6.292;2023-04-25T00:46:22;13.90;56.60
44537;DHT22;30245;51.966;6.292;2023-04-25T00:48:48;13.90;56.50
44537;DHT22;30245;51.966;6.292;2023-04-25T00:51:16;13.90;56.50
44537;DHT22;30245;51.966;6.292;2023-04-25T00:53:44;13.90;56.50
44537;DHT22;30245;51.966;6.292;2023-04-25T00:56:10;13.80;56.40
44537;DHT22;30245;51.966;6.292;2023-04-25T00:58:36;13.80;56.50
44537;DHT22;30245;51.966;6.292;2023-04-25T01:01:02;13.70;56.60
44537;DHT22;30245;51.966;6.292;2023-04-25T01:03:28;13.70;56.70
44537;DHT22;30245;51.966;6.292;2023-04-25T01:05:55;13.60;56.70
44537;DHT22;30245;51.966;6.292;2023-04-25T01:08:23;13.50;56.70
44537;DHT22;30245;51.966;6.292;2023-04-25T01:10:50;13.50;56.70
44537;DHT22;30245;51.966;6.292;2023-04-25T01:13:15;13.40;56.70
44537;DHT22;30245;51.966;6.292;2023-04-25T01:15:41;13.40;56.90
44537;DHT22;30245;51.966;6.292;2023-04-25T01:18:07;13.30;56.80
44537;DHT22;30245;51.966;6.292;2023-04-25T01:20:33;13.30;56.90
44537;DHT22;30245;51.966;6.292;2023-04-25T01:22:59;13.30;56.90
44537;DHT22;30245;51.966;6.292;2023-04-25T01:25:25;13.30;56.90
44537;DHT22;30245;51.966;6.292;2023-04-25T01:27:51;13.30;56.90
44537;DHT22;30245;51.966;6.292;2023-04-25T01:30:17;13.20;56.80
44537;DHT22;30245;51.966;6.292;2023-04-25T01:32:43;13.20;56.80
44537;DHT22;30245;51.966;6.292;2023-04-25T01:35:10;13.20;56.90
44537;DHT22;30245;51.966;6.292;2023-04-25T01:37:40;13.20;57.00
44537;DHT22;30245;51.966;6.292;2023-04-25T01:40:08;13.10;57.00
44537;DHT22;30245;51.966;6.292;2023-04-25T01:42:35;13.10;57.10
44537;DHT22;30245;51.966;6.292;2023-04-25T01:45:02;13.10;57.80
44537;DHT22;30245;51.966;6.292;2023-04-25T01:47:27;13.00;57.30
44537;DHT22;30245;51.966;6.292;2023-04-25T01:49:53;13.00;57.30
44537;DHT22;30245;51.966;6.292;2023-04-25T01:52:19;13.00;57.20
44537;DHT22;30245;51.966;6.292;2023-04-25T01:54:44;13.00;57.20
44537;DHT22;30245;51.966;6.292;2023-04-25T01:57:11;13.00;57.20
44537;DHT22;30245;51.966;6.292;2023-04-25T01:59:37;13.00;57.20
44537;DHT22;30245;51.966;6.292;2023-04-25T02:02:03;13.00;57.80
44537;DHT22;30245;51.966;6.292;2023-04-25T02:04:32;13.10;57.10
44537;DHT22;30245;51.966;6.292;2023-04-25T02:06:58;13.10;57.10
44537;DHT22;30245;51.966;6.292;2023-04-25T02:09:24;13.00;57.00
44537;DHT22;30245;51.966;6.292;2023-04-25T02:11:50;13.00;57.00
44537;DHT22;30245;51.966;6.292;2023-04-25T02:14:15;13.00;57.10
44537;DHT22;30245;51.966;6.292;2023-04-25T02:16:41;13.00;57.10
44537;DHT22;30245;51.966;6.292;2023-04-25T02:19:09;12.90;57.10
44537;DHT22;30245;51.966;6.292;2023-04-25T02:21:35;12.90;57.10
44537;DHT22;30245;51.966;6.292;2023-04-25T02:24:01;12.90;57.10
44537;DHT22;30245;51.966;6.292;2023-04-25T02:26:27;13.00;57.10
44537;DHT22;30245;51.966;6.292;2023-04-25T02:28:53;13.10;56.90
44537;DHT22;30245;51.966;6.292;2023-04-25T02:31:19;13.10;56.80
44537;DHT22;30245;51.966;6.292;2023-04-25T02:33:45;13.20;56.60
44537;DHT22;30245;51.966;6.292;2023-04-25T02:36:11;13.20;56.50
44537;DHT22;30245;51.966;6.292;2023-04-25T02:38:36;13.30;56.50
44537;DHT22;30245;51.966;6.292;2023-04-25T02:41:02;13.30;56.40
44537;DHT22;30245;51.966;6.292;2023-04-25T02:43:27;13.30;56.30
44537;DHT22;30245;51.966;6.292;2023-04-25T02:45:53;13.30;56.30
44537;DHT22;30245;51.966;6.292;2023-04-25T02:48:18;13.30;56.30
44537;DHT22;30245;51.966;6.292;2023-04-25T02:50:44;13.30;56.40
44537;DHT22;30245;51.966;6.292;2023-04-25T02:53:10;13.20;56.40
44537;DHT22;30245;51.966;6.292;2023-04-25T02:55:36;13.20;56.50
44537;DHT22;30245;51.966;6.292;2023-04-25T02:58:01;13.10;56.50
44537;DHT22;30245;51.966;6.292;2023-04-25T03:00:27;13.10;56.60
44537;DHT22;30245;51.966;6.292;2023-04-25T03:02:53;13.00;56.60
44537;DHT22;30245;51.966;6.292;2023-04-25T03:05:18;13.00;56.50
44537;DHT22;30245;51.966;6.292;2023-04-25T03:07:44;13.00;57.10
44537;DHT22;30245;51.966;6.292;2023-04-25T03:10:11;13.00;56.40
44537;DHT22;30245;51.966;6.292;2023-04-25T03:12:37;13.00;56.40
44537;DHT22;30245;51.966;6.292;2023-04-25T03:15:03;12.90;56.40
44537;DHT22;30245;51.966;6.292;2023-04-25T03:17:29;12.90;56.50
44537;DHT22;30245;51.966;6.292;2023-04-25T03:19:55;12.90;56.40
44537;DHT22;30245;51.966;6.292;2023-04-25T03:22:21;12.90;56.40
44537;DHT22;30245;51.966;6.292;2023-04-25T03:24:46;12.90;56.30
44537;DHT22;30245;51.966;6.292;2023-04-25T03:27:12;12.90;56.20
44537;DHT22;30245;51.966;6.292;2023-04-25T03:29:38;12.90;56.10
44537;DHT22;30245;51.966;6.292;2023-04-25T03:32:04;12.90;56.10
44537;DHT22;30245;51.966;6.292;2023-04-25T03:34:29;12.90;56.00
44537;DHT22;30245;51.966;6.292;2023-04-25T03:36:55;12.90;55.90
44537;DHT22;30245;51.966;6.292;2023-04-25T03:39:20;12.90;55.80
44537;DHT22;30245;51.966;6.292;2023-04-25T03:41:46;12.90;55.80
44537;DHT22;30245;51.966;6.292;2023-04-25T03:44:12;12.90;55.80
44537;DHT22;30245;51.966;6.292;2023-04-25T03:46:37;12.90;55.70
44537;DHT22;30245;51.966;6.292;2023-04-25T03:49:03;12.90;55.70
44537;DHT22;30245;51.966;6.292;2023-04-25T03:51:28;12.90;55.70
44537;DHT22;30245;51.966;6.292;2023-04-25T03:53:54;12.90;55.70
44537;DHT22;30245;51.966;6.292;2023-04-25T03:56:20;12.80;55.70
44537;DHT22;30245;51.966;6.292;2023-04-25T03:58:46;12.80;55.70
44537;DHT22;30245;51.966;6.292;2023-04-25T04:01:11;12.90;55.70
44537;DHT22;30245;51.966;6.292;2023-04-25T04:03:37;12.90;55.60
44537;DHT22;30245;51.966;6.292;2023-04-25T04:06:03;12.80;55.60
44537;DHT22;30245;51.966;6.292;2023-04-25T04:08:31;12.80;55.70
44537;DHT22;30245;51.966;6.292;2023-04-25T04:10:58;12.80;55.70
44537;DHT22;30245;51.966;6.292;2023-04-25T04:13:25;12.80;55.70
44537;DHT22;30245;51.966;6.292;2023-04-25T04:15:51;12.80;55.70
44537;DHT22;30245;51.966;6.292;2023-04-25T04:18:17;12.80;55.70
44537;DHT22;30245;51.966;6.292;2023-04-25T04:20:42;12.70;55.60
44537;DHT22;30245;51.966;6.292;2023-04-25T04:23:08;12.70;55.70
44537;DHT22;30245;51.966;6.292;2023-04-25T04:25:33;12.60;55.70
44537;DHT22;30245;51.966;6.292;2023-04-25T04:27:59;12.60;55.70
44537;DHT22;30245;51.966;6.292;2023-04-25T04:30:26;12.60;55.80
44537;DHT22;30245;51.966;6.292;2023-04-25T04:32:55;12.60;55.70
44537;DHT22;30245;51.966;6.292;2023-04-25T04:35:21;12.50;55.70
44537;DHT22;30245;51.966;6.292;2023-04-25T04:37:47;12.50;55.80
44537;DHT22;30245;51.966;6.292;2023-04-25T04:40:13;12.50;55.80
44537;DHT22;30245;51.966;6.292;2023-04-25T04:42:41;12.50;55.70
44537;DHT22;30245;51.966;6.292;2023-04-25T04:45:07;12.50;55.60
44537;DHT22;30245;51.966;6.292;2023-04-25T04:47:33;12.40;56.20
44537;DHT22;30245;51.966;6.292;2023-04-25T04:49:59;12.50;55.80
44537;DHT22;30245;51.966;6.292;2023-04-25T04:52:25;12.50;55.80
44537;DHT22;30245;51.966;6.292;2023-04-25T04:54:50;12.50;55.60
44537;DHT22;30245;51.966;6.292;2023-04-25T04:57:16;12.50;55.60
44537;DHT22;30245;51.966;6.292;2023-04-25T04:59:42;12.50;55.60
44537;DHT22;30245;51.966;6.292;2023-04-25T05:02:07;12.50;55.50
44537;DHT22;30245;51.966;6.292;2023-04-25T05:04:33;12.60;55.40
44537;DHT22;30245;51.966;6.292;2023-04-25T05:06:58;12.60;55.30
44537;DHT22;30245;51.966;6.292;2023-04-25T05:09:24;12.60;55.10
44537;DHT22;30245;51.966;6.292;2023-04-25T05:11:51;12.60;55.10
44537;DHT22;30245;51.966;6.292;2023-04-25T05:14:17;12.60;55.10
44537;DHT22;30245;51.966;6.292;2023-04-25T05:16:43;12.50;55.10
44537;DHT22;30245;51.966;6.292;2023-04-25T05:19:09;12.50;55.20
44537;DHT22;30245;51.966;6.292;2023-04-25T05:21:34;12.40;55.20
44537;DHT22;30245;51.966;6.292;2023-04-25T05:24:01;12.40;55.40
44537;DHT22;30245;51.966;6.292;2023-04-25T05:26:26;12.30;55.50
44537;DHT22;30245;51.966;6.292;2023-04-25T05:28:59;12.20;55.50
44537;DHT22;30245;51.966;6.292;2023-04-25T05:31:25;12.30;55.60
44537;DHT22;30245;51.966;6.292;2023-04-25T05:33:51;12.20;55.60
44537;DHT22;30245;51.966;6.292;2023-04-25T05:36:16;12.30;55.60
44537;DHT22;30245;51.966;6.292;2023-04-25T05:38:42;12.30;55.50
44537;DHT22;30245;51.966;6.292;2023-04-25T05:41:07;12.30;55.50
44537;DHT22;30245;51.966;6.292;2023-04-25T05:43:33;12.30;55.30
44537;DHT22;30245;51.966;6.292;2023-04-25T05:45:59;12.40;55.90
44537;DHT22;30245;51.966;6.292;2023-04-25T05:48:24;12.50;55.70
44537;DHT22;30245;51.966;6.292;2023-04-25T05:50:50;12.60;55.00
44537;DHT22;30245;51.966;6.292;2023-04-25T05:53:17;12.70;54.80
44537;DHT22;30245;51.966;6.292;2023-04-25T05:55:42;12.70;54.60
44537;DHT22;30245;51.966;6.292;2023-04-25T05:58:08;12.80;54.40
44537;DHT22;30245;51.966;6.292;2023-04-25T06:00:34;12.90;54.40
44537;DHT22;30245;51.966;6.292;2023-04-25T06:03:00;12.90;54.30
44537;DHT22;30245;51.966;6.292;2023-04-25T06:05:26;12.80;54.20
44537;DHT22;30245;51.966;6.292;2023-04-25T06:07:52;12.80;54.20
44537;DHT22;30245;51.966;6.292;2023-04-25T06:10:17;12.80;54.20
44537;DHT22;30245;51.966;6.292;2023-04-25T06:12:43;12.80;54.10
44537;DHT22;30245;51.966;6.292;2023-04-25T06:15:09;12.70;54.00
44537;DHT22;30245;51.966;6.292;2023-04-25T06:17:35;12.70;54.10
44537;DHT22;30245;51.966;6.292;2023-04-25T06:20:01;12.70;54.10
44537;DHT22;30245;51.966;6.292;2023-04-25T06:22:27;12.70;54.10
44537;DHT22;30245;51.966;6.292;2023-04-25T06:24:52;12.70;54.20
44537;DHT22;30245;51.966;6.292;2023-04-25T06:27:18;12.70;54.90
44537;DHT22;30245;51.966;6.292;2023-04-25T06:29:44;12.60;54.40
44537;DHT22;30245;51.966;6.292;2023-04-25T06:32:09;12.70;54.50
44537;DHT22;30245;51.966;6.292;2023-04-25T06:34:35;12.60;54.30
44537;DHT22;30245;51.966;6.292;2023-04-25T06:37:00;12.70;54.30
44537;DHT22;30245;51.966;6.292;2023-04-25T06:39:26;12.80;54.20
44537;DHT22;30245;51.966;6.292;2023-04-25T06:41:51;12.90;54.00
44537;DHT22;30245;51.966;6.292;2023-04-25T06:44:18;13.00;53.90
44537;DHT22;30245;51.966;6.292;2023-04-25T06:46:44;13.10;53.70
44537;DHT22;30245;51.966;6.292;2023-04-25T06:49:09;13.10;53.60
44537;DHT22;30245;51.966;6.292;2023-04-25T06:51:35;13.20;53.40
44537;DHT22;30245;51.966;6.292;2023-04-25T06:54:00;13.30;53.30
44537;DHT22;30245;51.966;6.292;2023-04-25T06:56:26;13.40;53.20
44537;DHT22;30245;51.966;6.292;2023-04-25T06:58:54;13.40;53.00
44537;DHT22;30245;51.966;6.292;2023-04-25T07:01:20;13.50;52.90
44537;DHT22;30245;51.966;6.292;2023-04-25T07:03:46;13.50;52.70
44537;DHT22;30245;51.966;6.292;2023-04-25T07:06:11;13.60;52.50
44537;DHT22;30245;51.966;6.292;2023-04-25T07:08:37;13.60;52.50
44537;DHT22;30245;51.966;6.292;2023-04-25T07:11:02;13.60;52.40
44537;DHT22;30245;51.966;6.292;2023-04-25T07:13:28;13.70;52.40
44537;DHT22;30245;51.966;6.292;2023-04-25T07:15:53;13.70;52.40
44537;DHT22;30245;51.966;6.292;2023-04-25T07:18:19;13.70;52.30
44537;DHT22;30245;51.966;6.292;2023-04-25T07:20:44;13.70;52.40
44537;DHT22;30245;51.966;6.292;2023-04-25T07:23:10;13.70;52.40
44537;DHT22;30245;51.966;6.292;2023-04-25T07:25:36;13.70;52.50
44537;DHT22;30245;51.966;6.292;2023-04-25T07:28:01;13.70;52.60
44537;DHT22;30245;51.966;6.292;2023-04-25T07:30:27;13.80;52.60
44537;DHT22;30245;51.966;6.292;2023-04-25T07:32:53;13.90;52.40
44537;DHT22;30245;51.966;6.292;2023-04-25T07:35:19;14.00;52.30
44537;DHT22;30245;51.966;6.292;2023-04-25T07:37:44;14.10;52.10
44537;DHT22;30245;51.966;6.292;2023-04-25T07:40:10;14.30;51.90
44537;DHT22;30245;51.966;6.292;2023-04-25T07:42:36;14.40;51.70
44537;DHT22;30245;51.966;6.292;2023-04-25T07:45:02;14.50;51.30
44537;DHT22;30245;51.966;6.292;2023-04-25T07:47:28;14.50;50.90
44537;DHT22;30245;51.966;6.292;2023-04-25T07:49:54;14.50;50.70
44537;DHT22;30245;51.966;6.292;2023-04-25T07:52:19;14.50;50.50
44537;DHT22;30245;51.966;6.292;2023-04-25T07:54:45;14.50;50.50
44537;DHT22;30245;51.966;6.292;2023-04-25T07:57:12;14.60;50.60
44537;DHT22;30245;51.966;6.292;2023-04-25T07:59:39;14.60;50.60
44537;DHT22;30245;51.966;6.292;2023-04-25T08:02:05;14.70;50.50
44537;DHT22;30245;51.966;6.292;2023-04-25T08:04:31;14.80;50.30
44537;DHT22;30245;51.966;6.292;2023-04-25T08:06:56;14.80;50.30
44537;DHT22;30245;51.966;6.292;2023-04-25T08:09:22;14.90;50.40
44537;DHT22;30245;51.966;6.292;2023-04-25T08:11:48;14.90;50.20
44537;DHT22;30245;51.966;6.292;2023-04-25T08:14:14;14.90;50.10
44537;DHT22;30245;51.966;6.292;2023-04-25T08:16:39;14.90;50.10
44537;DHT22;30245;51.966;6.292;2023-04-25T08:19:05;14.90;50.20
44537;DHT22;30245;51.966;6.292;2023-04-25T08:21:31;14.90;50.20
44537;DHT22;30245;51.966;6.292;2023-04-25T08:23:57;14.90;50.00
44537;DHT22;30245;51.966;6.292;2023-04-25T08:26:24;15.00;50.00
44537;DHT22;30245;51.966;6.292;2023-04-25T08:28:50;15.00;49.50
44537;DHT22;30245;51.966;6.292;2023-04-25T08:31:16;15.10;49.40
44537;DHT22;30245;51.966;6.292;2023-04-25T08:33:42;15.30;49.30
44537;DHT22;30245;51.966;6.292;2023-04-25T08:36:07;15.40;48.90
44537;DHT22;30245;51.966;6.292;2023-04-25T08:38:33;15.50;48.70
44537;DHT22;30245;51.966;6.292;2023-04-25T08:41:00;15.60;48.40
44537;DHT22;30245;51.966;6.292;2023-04-25T08:43:26;15.70;48.30
44537;DHT22;30245;51.966;6.292;2023-04-25T08:45:54;15.60;47.70
44537;DHT22;30245;51.966;6.292;2023-04-25T08:48:24;15.60;47.60
44537;DHT22;30245;51.966;6.292;2023-04-25T08:50:53;15.30;47.30
44537;DHT22;30245;51.966;6.292;2023-04-25T08:53:27;15.00;47.60
44537;DHT22;30245;51.966;6.292;2023-04-25T08:55:57;14.70;48.30
44537;DHT22;30245;51.966;6.292;2023-04-25T08:58:23;14.30;48.70
44537;DHT22;30245;51.966;6.292;2023-04-25T09:00:50;14.10;49.80
44537;DHT22;30245;51.966;6.292;2023-04-25T09:03:19;13.90;49.60
44537;DHT22;30245;51.966;6.292;2023-04-25T09:05:44;13.80;49.80
44537;DHT22;30245;51.966;6.292;2023-04-25T09:08:10;13.60;50.00
44537;DHT22;30245;51.966;6.292;2023-04-25T09:10:36;13.50;50.30
44537;DHT22;30245;51.966;6.292;2023-04-25T09:15:50;13.60;50.60
44537;DHT22;30245;51.966;6.292;2023-04-25T09:18:36;13.70;50.60
44537;DHT22;30245;51.966;6.292;2023-04-25T09:21:10;14.00;50.30
44537;DHT22;30245;51.966;6.292;2023-04-25T09:23:54;14.10;49.90
44537;DHT22;30245;51.966;6.292;2023-04-25T09:26:21;14.30;49.50
44537;DHT22;30245;51.966;6.292;2023-04-25T09:28:47;14.50;49.30
44537;DHT22;30245;51.966;6.292;2023-04-25T09:31:22;14.70;49.20
44537;DHT22;30245;51.966;6.292;2023-04-25T09:33:49;14.80;48.70
44537;DHT22;30245;51.966;6.292;2023-04-25T09:36:15;14.80;48.30
44537;DHT22;30245;51.966;6.292;2023-04-25T09:38:45;14.90;48.00
44537;DHT22;30245;51.966;6.292;2023-04-25T09:41:11;15.00;48.00
44537;DHT22;30245;51.966;6.292;2023-04-25T09:43:38;15.10;47.90
44537;DHT22;30245;51.966;6.292;2023-04-25T09:46:09;15.20;47.70
44537;DHT22;30245;51.966;6.292;2023-04-25T09:48:36;15.30;47.70
44537;DHT22;30245;51.966;6.292;2023-04-25T09:51:14;15.40;47.30
44537;DHT22;30245;51.966;6.292;2023-04-25T09:53:41;15.60;47.00
44537;DHT22;30245;51.966;6.292;2023-04-25T09:56:09;15.80;46.90
44537;DHT22;30245;51.966;6.292;2023-04-25T09:58:36;16.10;46.70
44537;DHT22;30245;51.966;6.292;2023-04-25T10:01:07;16.30;46.00
44537;DHT22;30245;51.966;6.292;2023-04-25T10:03:34;16.50;45.70
44537;DHT22;30245;51.966;6.292;2023-04-25T10:06:02;16.70;45.40
44537;DHT22;30245;51.966;6.292;2023-04-25T10:08:33;16.90;44.70
44537;DHT22;30245;51.966;6.292;2023-04-25T10:11:01;17.10;44.50
44537;DHT22;30245;51.966;6.292;2023-04-25T10:13:29;17.30;44.40
44537;DHT22;30245;51.966;6.292;2023-04-25T10:16:01;17.40;44.20
44537;DHT22;30245;51.966;6.292;2023-04-25T10:18:28;17.40;44.00
44537;DHT22;30245;51.966;6.292;2023-04-25T10:20:55;17.50;44.20
44537;DHT22;30245;51.966;6.292;2023-04-25T10:23:21;17.70;44.10
44537;DHT22;30245;51.966;6.292;2023-04-25T10:25:47;17.80;43.70
44537;DHT22;30245;51.966;6.292;2023-04-25T10:28:14;17.90;43.30
44537;DHT22;30245;51.966;6.292;2023-04-25T10:30:57;17.90;43.00
44537;DHT22;30245;51.966;6.292;2023-04-25T10:33:36;17.70;43.20
44537;DHT22;30245;51.966;6.292;2023-04-25T10:38:36;17.30;44.10
44537;DHT22;30245;51.966;6.292;2023-04-25T10:41:07;17.30;44.30
44537;DHT22;30245;51.966;6.292;2023-04-25T10:43:50;17.20;44.50
44537;DHT22;30245;51.966;6.292;2023-04-25T10:46:28;17.20;44.70
44537;DHT22;30245;51.966;6.292;2023-04-25T10:48:59;17.10;45.00
44537;DHT22;30245;51.966;6.292;2023-04-25T10:51:25;17.10;45.10
44537;DHT22;30245;51.966;6.292;2023-04-25T10:59:06;17.20;45.10
44537;DHT22;30245;51.966;6.292;2023-04-25T11:01:40;17.40;45.20
44537;DHT22;30245;51.966;6.292;2023-04-25T11:04:06;17.80;44.90
44537;DHT22;30245;51.966;6.292;2023-04-25T11:09:23;18.30;43.30
44537;DHT22;30245;51.966;6.292;2023-04-25T11:11:56;18.50;42.80
44537;DHT22;30245;51.966;6.292;2023-04-25T11:14:22;18.40;42.40
44537;DHT22;30245;51.966;6.292;2023-04-25T11:16:57;18.20;42.40
44537;DHT22;30245;51.966;6.292;2023-04-25T11:19:24;18.10;42.60
44537;DHT22;30245;51.966;6.292;2023-04-25T11:21:49;17.90;42.60
44537;DHT22;30245;51.966;6.292;2023-04-25T11:24:18;17.70;42.60
44537;DHT22;30245;51.966;6.292;2023-04-25T11:26:46;17.40;42.50
44537;DHT22;30245;51.966;6.292;2023-04-25T11:29:13;17.30;42.70
44537;DHT22;30245;51.966;6.292;2023-04-25T11:31:38;17.10;42.60
44537;DHT22;30245;51.966;6.292;2023-04-25T11:34:04;17.00;42.90
44537;DHT22;30245;51.966;6.292;2023-04-25T11:36:29;16.90;42.70
44537;DHT22;30245;51.966;6.292;2023-04-25T11:38:56;16.80;42.20
44537;DHT22;30245;51.966;6.292;2023-04-25T11:41:21;16.60;42.10
44537;DHT22;30245;51.966;6.292;2023-04-25T11:43:48;16.60;42.10
44537;DHT22;30245;51.966;6.292;2023-04-25T11:46:15;16.70;42.10
44537;DHT22;30245;51.966;6.292;2023-04-25T11:48:41;16.80;41.90
44537;DHT22;30245;51.966;6.292;2023-04-25T11:51:07;16.90;41.50
44537;DHT22;30245;51.966;6.292;2023-04-25T11:53:33;17.00;41.00
44537;DHT22;30245;51.966;6.292;2023-04-25T11:55:59;17.00;40.40
44537;DHT22;30245;51.966;6.292;2023-04-25T11:58:28;17.10;40.20
44537;DHT22;30245;51.966;6.292;2023-04-25T12:00:53;17.20;40.00
44537;DHT22;30245;51.966;6.292;2023-04-25T12:03:19;17.40;40.30
44537;DHT22;30245;51.966;6.292;2023-04-25T12:05:46;17.70;40.00
44537;DHT22;30245;51.966;6.292;2023-04-25T12:08:15;18.00;39.50
44537;DHT22;30245;51.966;6.292;2023-04-25T12:10:43;18.40;39.30
44537;DHT22;30245;51.966;6.292;2023-04-25T12:13:25;18.80;38.70
44537;DHT22;30245;51.966;6.292;2023-04-25T12:15:54;19.00;38.40
44537;DHT22;30245;51.966;6.292;2023-04-25T12:18:23;19.20;38.10
44537;DHT22;30245;51.966;6.292;2023-04-25T12:20:49;19.50;38.10
44537;DHT22;30245;51.966;6.292;2023-04-25T12:23:15;19.70;37.70
44537;DHT22;30245;51.966;6.292;2023-04-25T12:25:41;19.80;37.10
44537;DHT22;30245;51.966;6.292;2023-04-25T12:28:15;19.90;37.00
44537;DHT22;30245;51.966;6.292;2023-04-25T12:31:03;19.90;37.50
44537;DHT22;30245;51.966;6.292;2023-04-25T12:33:33;20.00;36.90
44537;DHT22;30245;51.966;6.292;2023-04-25T12:36:00;20.10;36.80
44537;DHT22;30245;51.966;6.292;2023-04-25T12:38:30;20.00;36.70
44537;DHT22;30245;51.966;6.292;2023-04-25T12:40:57;20.10;37.00
44537;DHT22;30245;51.966;6.292;2023-04-25T12:43:22;20.30;36.80
44537;DHT22;30245;51.966;6.292;2023-04-25T12:45:52;20.40;36.50
44537;DHT22;30245;51.966;6.292;2023-04-25T12:48:18;20.30;36.30
44537;DHT22;30245;51.966;6.292;2023-04-25T12:50:44;20.10;36.40
44537;DHT22;30245;51.966;6.292;2023-04-25T12:53:10;19.90;36.40
44537;DHT22;30245;51.966;6.292;2023-04-25T12:55:37;19.60;36.70
44537;DHT22;30245;51.966;6.292;2023-04-25T12:58:02;19.30;37.50
44537;DHT22;30245;51.966;6.292;2023-04-25T13:00:29;19.00;38.40
44537;DHT22;30245;51.966;6.292;2023-04-25T13:02:54;18.70;38.90
44537;DHT22;30245;51.966;6.292;2023-04-25T13:05:20;18.50;39.20
44537;DHT22;30245;51.966;6.292;2023-04-25T13:07:46;18.30;39.50
44537;DHT22;30245;51.966;6.292;2023-04-25T13:10:11;18.20;39.60
44537;DHT22;30245;51.966;6.292;2023-04-25T13:12:37;18.00;39.40
44537;DHT22;30245;51.966;6.292;2023-04-25T13:15:03;18.10;39.30
44537;DHT22;30245;51.966;6.292;2023-04-25T13:17:28;17.90;38.60
44537;DHT22;30245;51.966;6.292;2023-04-25T13:19:54;17.90;38.30
44537;DHT22;30245;51.966;6.292;2023-04-25T13:22:19;18.00;38.60
44537;DHT22;30245;51.966;6.292;2023-04-25T13:24:46;18.20;38.60
44537;DHT22;30245;51.966;6.292;2023-04-25T13:27:12;18.40;38.50
44537;DHT22;30245;51.966;6.292;2023-04-25T13:29:38;18.50;38.10
44537;DHT22;30245;51.966;6.292;2023-04-25T13:32:06;18.50;38.60
44537;DHT22;30245;51.966;6.292;2023-04-25T13:34:31;18.60;37.90
44537;DHT22;30245;51.966;6.292;2023-04-25T13:36:57;18.80;37.60
44537;DHT22;30245;51.966;6.292;2023-04-25T13:39:22;18.90;37.40
44537;DHT22;30245;51.966;6.292;2023-04-25T13:41:48;18.90;37.20
44537;DHT22;30245;51.966;6.292;2023-04-25T13:44:13;18.90;37.00
44537;DHT22;30245;51.966;6.292;2023-04-25T13:46:39;18.80;37.10
44537;DHT22;30245;51.966;6.292;2023-04-25T13:49:05;19.00;37.00
44537;DHT22;30245;51.966;6.292;2023-04-25T13:51:31;19.50;36.90
44537;DHT22;30245;51.966;6.292;2023-04-25T13:53:57;19.90;35.90
44537;DHT22;30245;51.966;6.292;2023-04-25T13:56:22;20.10;35.60
44537;DHT22;30245;51.966;6.292;2023-04-25T13:58:50;20.30;35.20
44537;DHT22;30245;51.966;6.292;2023-04-25T14:01:15;20.40;34.90
44537;DHT22;30245;51.966;6.292;2023-04-25T14:03:41;20.30;34.30
44537;DHT22;30245;51.966;6.292;2023-04-25T14:06:07;20.00;34.50
44537;DHT22;30245;51.966;6.292;2023-04-25T14:08:34;19.80;34.80
44537;DHT22;30245;51.966;6.292;2023-04-25T14:11:00;19.60;35.00
44537;DHT22;30245;51.966;6.292;2023-04-25T14:13:26;19.50;35.30
44537;DHT22;30245;51.966;6.292;2023-04-25T14:15:51;19.40;35.30
44537;DHT22;30245;51.966;6.292;2023-04-25T14:18:17;19.20;35.20
44537;DHT22;30245;51.966;6.292;2023-04-25T14:20:43;19.00;35.20
44537;DHT22;30245;51.966;6.292;2023-04-25T14:23:08;19.00;36.00
44537;DHT22;30245;51.966;6.292;2023-04-25T14:25:34;18.90;35.10
44537;DHT22;30245;51.966;6.292;2023-04-25T14:28:01;18.70;34.90
44537;DHT22;30245;51.966;6.292;2023-04-25T14:30:27;18.70;35.20
44537;DHT22;30245;51.966;6.292;2023-04-25T14:32:53;18.90;35.20
44537;DHT22;30245;51.966;6.292;2023-04-25T14:35:18;18.90;35.00
44537;DHT22;30245;51.966;6.292;2023-04-25T14:37:44;18.70;34.90
44537;DHT22;30245;51.966;6.292;2023-04-25T14:40:10;18.60;35.30
44537;DHT22;30245;51.966;6.292;2023-04-25T14:42:37;18.50;35.40
44537;DHT22;30245;51.966;6.292;2023-04-25T14:45:04;18.40;35.50
44537;DHT22;30245;51.966;6.292;2023-04-25T14:47:31;18.50;35.60
44537;DHT22;30245;51.966;6.292;2023-04-25T14:49:57;19.00;35.20
44537;DHT22;30245;51.966;6.292;2023-04-25T14:52:22;19.60;35.30
44537;DHT22;30245;51.966;6.292;2023-04-25T14:54:48;20.30;33.90
44537;DHT22;30245;51.966;6.292;2023-04-25T14:57:14;20.80;33.10
44537;DHT22;30245;51.966;6.292;2023-04-25T14:59:40;21.20;32.50
44537;DHT22;30245;51.966;6.292;2023-04-25T15:02:06;21.80;32.00
44537;DHT22;30245;51.966;6.292;2023-04-25T15:04:32;22.30;31.60
44537;DHT22;30245;51.966;6.292;2023-04-25T15:06:57;22.60;30.60
44537;DHT22;30245;51.966;6.292;2023-04-25T15:09:23;22.60;31.40
44537;DHT22;30245;51.966;6.292;2023-04-25T15:11:49;22.30;31.10
44537;DHT22;30245;51.966;6.292;2023-04-25T15:14:16;21.90;31.40
44537;DHT22;30245;51.966;6.292;2023-04-25T15:16:42;21.40;31.30
44537;DHT22;30245;51.966;6.292;2023-04-25T15:19:07;20.80;31.60
44537;DHT22;30245;51.966;6.292;2023-04-25T15:21:33;20.40;32.10
44537;DHT22;30245;51.966;6.292;2023-04-25T15:23:59;19.90;32.20
44537;DHT22;30245;51.966;6.292;2023-04-25T15:26:25;19.50;32.70
44537;DHT22;30245;51.966;6.292;2023-04-25T15:28:51;19.20;33.10
44537;DHT22;30245;51.966;6.292;2023-04-25T15:31:17;18.90;33.40
44537;DHT22;30245;51.966;6.292;2023-04-25T15:33:43;18.60;33.90
44537;DHT22;30245;51.966;6.292;2023-04-25T15:36:08;18.50;34.20
44537;DHT22;30245;51.966;6.292;2023-04-25T15:38:36;18.20;34.30